EDT,Max TemperatureF,Mean TemperatureF,Min TemperatureF,Max Dew PointF,MeanDew PointF,Min DewpointF,Max Humidity, Mean Humidity, Min Humidity, Max Sea Level PressureIn, Mean Sea Level PressureIn, Min Sea Level PressureIn, Max VisibilityMiles, Mean VisibilityMiles, Min VisibilityMiles, Max Wind SpeedMPH, Mean Wind SpeedMPH, Max Gust SpeedMPH,PrecipitationIn, CloudCover, Events, WindDirDegrees
2013-3-1,48,40,32,32,29,25,87,61,40,29.89,29.83,29.78,10,10,10,14,3,,0.00,6,,287
2013-3-2,42,38,33,28,27,25,75,60,49,29.90,29.87,29.83,10,10,10,12,2,18,0.00,8,,309
2013-3-3,46,38,30,28,22,19,93,57,34,29.92,29.87,29.81,10,10,10,16,5,23,0.00,5,,317
2013-3-4,48,38,28,27,19,16,86,51,27,30.05,30.00,29.93,10,10,10,16,7,26,0.00,0,,299
2013-3-5,53,38,24,43,28,19,100,68,28,30.12,30.00,29.71,10,10,7,14,3,21,0.03,4,Rain,88
2013-3-6,48,42,35,48,40,34,100,95,76,29.85,29.53,29.33,10,7,1,28,14,38,0.44,8,Rain-Thunderstorm,298
2013-3-7,53,47,41,36,29,27,81,55,35,30.14,30.03,29.87,10,10,10,22,14,32,0.00,5,,317
2013-3-8,50,42,35,30,28,25,75,55,40,30.20,30.14,30.08,10,10,10,23,10,32,0.00,4,,310
2013-3-9,59,46,32,34,27,16,93,54,20,30.32,30.26,30.20,10,10,10,14,6,20,0.00,0,,339
2013-3-10,60,43,26,43,33,18,100,72,21,30.34,30.31,30.28,10,9,0,9,2,,0.00,1,Fog,95
2013-3-11,68,50,33,52,45,34,100,77,49,30.30,30.16,30.03,10,7,0,16,4,24,0.00,3,Fog,145
2013-3-12,69,60,51,63,56,45,100,85,68,30.03,29.87,29.74,10,10,0,17,10,23,0.28,7,Fog-Rain,166
2013-3-13,57,49,41,45,31,25,76,51,31,30.05,29.98,29.91,10,10,10,21,6,25,0.00,2,,299
2013-3-14,51,40,30,27,20,18,69,43,26,30.18,30.11,30.05,10,10,10,20,9,28,0.00,1,,287
2013-3-15,57,42,26,36,27,18,100,55,26,30.16,30.03,29.88,10,10,10,17,3,28,0.00,0,,216
2013-3-16,75,60,44,54,45,34,100,65,38,29.89,29.78,29.63,10,9,0,16,6,26,0.10,3,Fog-Rain-Thunderstorm,204
2013-3-17,53,46,39,54,40,34,100,87,76,30.26,30.09,29.82,10,8,1,15,8,18,0.00,8,,33
2013-3-18,48,44,39,48,43,36,100,97,81,30.26,30.11,29.89,10,3,0,14,8,20,0.04,8,Fog-Rain,33
2013-3-19,64,53,42,46,40,19,100,71,28,29.96,29.84,29.78,10,7,0,15,4,22,0.03,4,Fog-Rain,274
2013-3-20,53,44,35,32,19,9,75,36,18,30.08,29.97,29.82,10,10,10,14,6,20,0.00,0,,237
2013-3-21,42,35,28,32,27,12,100,73,38,29.93,29.78,29.70,10,10,3,17,4,26,0.00,5,Snow,322
2013-3-22,51,37,23,27,17,12,80,48,22,30.05,29.98,29.93,10,10,10,14,6,23,0.00,0,,255
2013-3-23,57,42,26,36,27,21,93,64,25,30.06,30.00,29.92,10,10,10,10,2,,0.00,2,,218
2013-3-24,44,37,30,39,36,28,100,91,66,29.99,29.80,29.60,10,8,5,17,5,26,0.44,4,Rain,40
2013-3-25,48,42,35,39,35,30,100,83,54,29.74,29.57,29.47,10,8,2,22,7,29,0.02,8,Rain,279
2013-3-26,50,41,32,36,30,27,93,64,43,30.02,29.88,29.74,10,10,10,13,3,21,0.00,5,,287
2013-3-27,53,42,32,30,26,21,87,54,30,30.16,30.08,30.03,10,10,10,16,6,21,0.00,3,,287
2013-3-28,55,42,30,30,27,25,86,53,31,30.24,30.16,30.11,10,10,10,18,6,25,0.00,2,,293
2013-3-29,57,42,28,36,29,27,93,59,31,30.29,30.24,30.18,10,10,10,15,3,21,0.00,4,,305
2013-3-30,64,47,30,41,34,27,100,61,24,30.24,30.19,30.14,10,10,2,12,3,18,0.00,2,,86
2013-3-31,68,57,46,55,47,36,94,73,54,30.17,29.96,29.80,10,10,5,13,4,18,0.12,4,Rain,154